sensor_id;sensor_type;location;lat;lon;timestamp;P1;durP1;ratioP1;P2;durP2;ratioP2
34924;SDS011;21130;51.728;8.748;2023-09-18T00:01:15;9.00;;;7.00;;
34924;SDS011;21130;51.728;8.748;2023-09-18T00:03:46;10.05;;;6.85;;
34924;SDS011;21130;51.728;8.748;2023-09-18T00:06:13;8.23;;;6.88;;
34924;SDS011;21130;51.728;8.748;2023-09-18T00:08:39;8.40;;;7.07;;
34924;SDS011;21130;51.728;8.748;2023-09-18T00:11:06;9.20;;;6.65;;
34924;SDS011;21130;51.728;8.748;2023-09-18T00:13:33;9.52;;;6.70;;
34924;SDS011;21130;51.728;8.748;2023-09-18T00:16:01;7.15;;;6.38;;
34924;SDS011;21130;51.728;8.748;2023-09-18T00:18:29;10.73;;;6.70;;
34924;SDS011;21130;51.728;8.748;2023-09-18T00:20:57;10.30;;;6.55;;
34924;SDS011;21130;51.728;8.748;2023-09-18T00:23:23;11.18;;;6.45;;
34924;SDS011;21130;51.728;8.748;2023-09-18T00:25:50;10.93;;;6.28;;
34924;SDS011;21130;51.728;8.748;2023-09-18T00:28:16;6.93;;;6.25;;
34924;SDS011;21130;51.728;8.748;2023-09-18T00:30:46;8.13;;;6.38;;
34924;SDS011;21130;51.728;8.748;2023-09-18T00:33:14;8.23;;;5.97;;
34924;SDS011;21130;51.728;8.748;2023-09-18T00:35:44;10.60;;;5.82;;
34924;SDS011;21130;51.728;8.748;2023-09-18T00:38:13;9.68;;;6.43;;
34924;SDS011;21130;51.728;8.748;2023-09-18T00:40:39;7.03;;;6.28;;
34924;SDS011;21130;51.728;8.748;2023-09-18T00:43:08;12.32;;;6.97;;
34924;SDS011;21130;51.728;8.748;2023-09-18T00:45:38;10.30;;;7.20;;
34924;SDS011;21130;51.728;8.748;2023-09-18T00:48:07;9.23;;;6.38;;
34924;SDS011;21130;51.728;8.748;2023-09-18T00:50:34;8.25;;;6.40;;
34924;SDS011;21130;51.728;8.748;2023-09-18T00:53:01;8.95;;;7.22;;
34924;SDS011;21130;51.728;8.748;2023-09-18T00:55:30;11.07;;;6.90;;
34924;SDS011;21130;51.728;8.748;2023-09-18T00:57:57;9.50;;;6.75;;
34924;SDS011;21130;51.728;8.748;2023-09-18T01:01:43;7.32;;;6.28;;
34924;SDS011;21130;51.728;8.748;2023-09-18T01:04:11;10.43;;;6.20;;
34924;SDS011;21130;51.728;8.748;2023-09-18T01:06:39;6.82;;;5.97;;
34924;SDS011;21130;51.728;8.748;2023-09-18T01:09:05;11.45;;;6.82;;
34924;SDS011;21130;51.728;8.748;2023-09-18T01:11:40;9.10;;;5.85;;
34924;SDS011;21130;51.728;8.748;2023-09-18T01:14:14;10.07;;;6.00;;
34924;SDS011;21130;51.728;8.748;2023-09-18T01:16:57;9.10;;;5.50;;
34924;SDS011;21130;51.728;8.748;2023-09-18T01:19:36;9.73;;;5.53;;
34924;SDS011;21130;51.728;8.748;2023-09-18T01:22:07;7.65;;;5.40;;
34924;SDS011;21130;51.728;8.748;2023-09-18T01:24:36;8.13;;;5.40;;
34924;SDS011;21130;51.728;8.748;2023-09-18T01:27:05;12.40;;;5.57;;
34924;SDS011;21130;51.728;8.748;2023-09-18T01:29:34;7.05;;;5.63;;
34924;SDS011;21130;51.728;8.748;2023-09-18T01:32:00;6.43;;;5.22;;
34924;SDS011;21130;51.728;8.748;2023-09-18T01:34:29;9.57;;;5.40;;
34924;SDS011;21130;51.728;8.748;2023-09-18T01:37:01;6.53;;;5.70;;
34924;SDS011;21130;51.728;8.748;2023-09-18T01:39:29;10.27;;;5.88;;
34924;SDS011;21130;51.728;8.748;2023-09-18T01:41:59;6.50;;;5.32;;
34924;SDS011;21130;51.728;8.748;2023-09-18T01:44:27;8.00;;;5.93;;
34924;SDS011;21130;51.728;8.748;2023-09-18T01:46:54;5.53;;;4.90;;
34924;SDS011;21130;51.728;8.748;2023-09-18T01:49:26;10.63;;;5.60;;
34924;SDS011;21130;51.728;8.748;2023-09-18T01:51:53;8.90;;;5.18;;
34924;SDS011;21130;51.728;8.748;2023-09-18T01:54:20;7.75;;;5.13;;
34924;SDS011;21130;51.728;8.748;2023-09-18T01:56:47;6.45;;;5.45;;
34924;SDS011;21130;51.728;8.748;2023-09-18T01:59:15;10.63;;;5.68;;
34924;SDS011;21130;51.728;8.748;2023-09-18T02:01:41;6.80;;;5.43;;
34924;SDS011;21130;51.728;8.748;2023-09-18T02:04:08;5.50;;;4.95;;
34924;SDS011;21130;51.728;8.748;2023-09-18T02:06:35;7.47;;;5.30;;
34924;SDS011;21130;51.728;8.748;2023-09-18T02:09:01;8.45;;;5.22;;
34924;SDS011;21130;51.728;8.748;2023-09-18T02:11:28;7.25;;;5.40;;
34924;SDS011;21130;51.728;8.748;2023-09-18T02:13:55;9.55;;;6.03;;
34924;SDS011;21130;51.728;8.748;2023-09-18T02:16:23;9.65;;;5.40;;
34924;SDS011;21130;51.728;8.748;2023-09-18T02:18:53;8.70;;;5.50;;
34924;SDS011;21130;51.728;8.748;2023-09-18T02:21:20;7.80;;;5.60;;
34924;SDS011;21130;51.728;8.748;2023-09-18T02:23:48;8.57;;;6.18;;
34924;SDS011;21130;51.728;8.748;2023-09-18T02:26:16;8.45;;;5.22;;
34924;SDS011;21130;51.728;8.748;2023-09-18T02:28:43;7.00;;;5.28;;
34924;SDS011;21130;51.728;8.748;2023-09-18T02:31:10;7.93;;;5.25;;
34924;SDS011;21130;51.728;8.748;2023-09-18T02:33:39;8.43;;;5.07;;
34924;SDS011;21130;51.728;8.748;2023-09-18T02:36:06;7.60;;;5.53;;
34924;SDS011;21130;51.728;8.748;2023-09-18T02:38:32;5.82;;;4.93;;
34924;SDS011;21130;51.728;8.748;2023-09-18T02:40:59;6.10;;;5.10;;
34924;SDS011;21130;51.728;8.748;2023-09-18T02:43:26;5.95;;;5.22;;
34924;SDS011;21130;51.728;8.748;2023-09-18T02:45:53;6.43;;;4.93;;
34924;SDS011;21130;51.728;8.748;2023-09-18T02:48:20;7.93;;;5.15;;
34924;SDS011;21130;51.728;8.748;2023-09-18T02:50:48;7.30;;;5.05;;
34924;SDS011;21130;51.728;8.748;2023-09-18T02:53:16;6.22;;;4.82;;
34924;SDS011;21130;51.728;8.748;2023-09-18T02:55:44;7.25;;;5.35;;
34924;SDS011;21130;51.728;8.748;2023-09-18T02:58:11;6.90;;;5.47;;
34924;SDS011;21130;51.728;8.748;2023-09-18T03:00:40;8.48;;;5.32;;
34924;SDS011;21130;51.728;8.748;2023-09-18T03:03:08;8.90;;;5.47;;
34924;SDS011;21130;51.728;8.748;2023-09-18T03:05:35;6.38;;;5.78;;
34924;SDS011;21130;51.728;8.748;2023-09-18T03:08:03;6.25;;;5.40;;
34924;SDS011;21130;51.728;8.748;2023-09-18T03:10:32;11.95;;;5.50;;
34924;SDS011;21130;51.728;8.748;2023-09-18T03:12:59;8.13;;;5.07;;
34924;SDS011;21130;51.728;8.748;2023-09-18T03:15:26;7.07;;;5.10;;
34924;SDS011;21130;51.728;8.748;2023-09-18T03:17:54;6.97;;;4.88;;
34924;SDS011;21130;51.728;8.748;2023-09-18T03:20:21;8.02;;;5.35;;
34924;SDS011;21130;51.728;8.748;2023-09-18T03:22:49;7.68;;;4.70;;
34924;SDS011;21130;51.728;8.748;2023-09-18T03:25:18;8.82;;;5.00;;
34924;SDS011;21130;51.728;8.748;2023-09-18T03:27:44;6.25;;;5.03;;
34924;SDS011;21130;51.728;8.748;2023-09-18T03:30:11;7.47;;;5.43;;
34924;SDS011;21130;51.728;8.748;2023-09-18T03:32:40;6.32;;;5.07;;
34924;SDS011;21130;51.728;8.748;2023-09-18T03:35:07;9.57;;;5.10;;
34924;SDS011;21130;51.728;8.748;2023-09-18T03:37:35;7.60;;;5.50;;
34924;SDS011;21130;51.728;8.748;2023-09-18T03:40:01;8.07;;;4.70;;
34924;SDS011;21130;51.728;8.748;2023-09-18T03:42:29;7.30;;;4.80;;
34924;SDS011;21130;51.728;8.748;2023-09-18T03:44:56;8.15;;;5.10;;
34924;SDS011;21130;51.728;8.748;2023-09-18T03:47:22;6.00;;;4.78;;
34924;SDS011;21130;51.728;8.748;2023-09-18T03:49:49;7.20;;;5.03;;
34924;SDS011;21130;51.728;8.748;2023-09-18T03:52:15;8.07;;;5.00;;
34924;SDS011;21130;51.728;8.748;2023-09-18T03:54:42;7.70;;;4.78;;
34924;SDS011;21130;51.728;8.748;2023-09-18T03:57:08;6.78;;;4.80;;
34924;SDS011;21130;51.728;8.748;2023-09-18T03:59:36;6.78;;;5.35;;
34924;SDS011;21130;51.728;8.748;2023-09-18T04:02:03;7.22;;;5.10;;
34924;SDS011;21130;51.728;8.748;2023-09-18T04:04:30;5.82;;;5.15;;
34924;SDS011;21130;51.728;8.748;2023-09-18T04:06:57;5.85;;;4.95;;
34924;SDS011;21130;51.728;8.748;2023-09-18T04:09:24;7.60;;;5.10;;
34924;SDS011;21130;51.728;8.748;2023-09-18T04:11:50;7.05;;;4.78;;
34924;SDS011;21130;51.728;8.748;2023-09-18T04:14:17;6.03;;;4.68;;
34924;SDS011;21130;51.728;8.748;2023-09-18T04:16:45;9.93;;;5.18;;
34924;SDS011;21130;51.728;8.748;2023-09-18T04:19:11;6.82;;;4.97;;
34924;SDS011;21130;51.728;8.748;2023-09-18T04:21:39;4.82;;;4.43;;
34924;SDS011;21130;51.728;8.748;2023-09-18T04:24:06;7.57;;;5.30;;
34924;SDS011;21130;51.728;8.748;2023-09-18T04:26:32;5.72;;;4.80;;
34924;SDS011;21130;51.728;8.748;2023-09-18T04:28:59;5.47;;;4.97;;
34924;SDS011;21130;51.728;8.748;2023-09-18T04:31:26;7.45;;;4.68;;
34924;SDS011;21130;51.728;8.748;2023-09-18T04:33:57;5.07;;;4.57;;
34924;SDS011;21130;51.728;8.748;2023-09-18T04:36:23;5.32;;;4.93;;
34924;SDS011;21130;51.728;8.748;2023-09-18T04:38:50;5.80;;;4.60;;
34924;SDS011;21130;51.728;8.748;2023-09-18T04:41:16;5.00;;;4.60;;
34924;SDS011;21130;51.728;8.748;2023-09-18T04:43:46;6.03;;;4.80;;
34924;SDS011;21130;51.728;8.748;2023-09-18T04:46:12;6.57;;;4.85;;
34924;SDS011;21130;51.728;8.748;2023-09-18T04:48:39;5.70;;;5.20;;
34924;SDS011;21130;51.728;8.748;2023-09-18T04:51:07;6.18;;;4.70;;
34924;SDS011;21130;51.728;8.748;2023-09-18T04:53:33;7.18;;;5.00;;
34924;SDS011;21130;51.728;8.748;2023-09-18T04:56:00;5.80;;;4.82;;
34924;SDS011;21130;51.728;8.748;2023-09-18T04:58:26;5.18;;;4.72;;
34924;SDS011;21130;51.728;8.748;2023-09-18T05:00:53;6.05;;;5.00;;
34924;SDS011;21130;51.728;8.748;2023-09-18T05:03:20;6.03;;;4.97;;
34924;SDS011;21130;51.728;8.748;2023-09-18T05:05:47;6.95;;;5.00;;
34924;SDS011;21130;51.728;8.748;2023-09-18T05:08:15;5.05;;;4.65;;
34924;SDS011;21130;51.728;8.748;2023-09-18T05:10:43;5.30;;;4.80;;
34924;SDS011;21130;51.728;8.748;2023-09-18T05:13:10;5.45;;;4.85;;
34924;SDS011;21130;51.728;8.748;2023-09-18T05:15:37;6.15;;;4.43;;
34924;SDS011;21130;51.728;8.748;2023-09-18T05:18:04;6.40;;;4.50;;
34924;SDS011;21130;51.728;8.748;2023-09-18T05:20:34;7.57;;;4.55;;
34924;SDS011;21130;51.728;8.748;2023-09-18T05:23:00;5.88;;;4.43;;
34924;SDS011;21130;51.728;8.748;2023-09-18T05:25:29;5.68;;;4.20;;
34924;SDS011;21130;51.728;8.748;2023-09-18T05:27:57;5.03;;;4.43;;
34924;SDS011;21130;51.728;8.748;2023-09-18T05:30:25;7.45;;;4.88;;
34924;SDS011;21130;51.728;8.748;2023-09-18T05:32:54;10.07;;;4.60;;
34924;SDS011;21130;51.728;8.748;2023-09-18T05:35:21;7.82;;;4.55;;
34924;SDS011;21130;51.728;8.748;2023-09-18T05:37:48;5.95;;;4.13;;
34924;SDS011;21130;51.728;8.748;2023-09-18T05:40:15;5.90;;;4.40;;
34924;SDS011;21130;51.728;8.748;2023-09-18T05:42:43;7.75;;;4.50;;
34924;SDS011;21130;51.728;8.748;2023-09-18T05:45:11;6.40;;;4.70;;
34924;SDS011;21130;51.728;8.748;2023-09-18T05:47:38;6.43;;;4.70;;
34924;SDS011;21130;51.728;8.748;2023-09-18T05:50:05;7.35;;;4.68;;
34924;SDS011;21130;51.728;8.748;2023-09-18T05:52:33;4.63;;;4.15;;
34924;SDS011;21130;51.728;8.748;2023-09-18T05:55:00;6.63;;;4.70;;
34924;SDS011;21130;51.728;8.748;2023-09-18T05:57:26;5.22;;;4.25;;
34924;SDS011;21130;51.728;8.748;2023-09-18T05:59:55;5.55;;;4.18;;
34924;SDS011;21130;51.728;8.748;2023-09-18T06:02:22;6.03;;;4.38;;
34924;SDS011;21130;51.728;8.748;2023-09-18T06:04:50;7.45;;;4.35;;
34924;SDS011;21130;51.728;8.748;2023-09-18T06:07:21;5.07;;;4.57;;
34924;SDS011;21130;51.728;8.748;2023-09-18T06:09:48;5.97;;;4.38;;
34924;SDS011;21130;51.728;8.748;2023-09-18T06:12:15;4.95;;;4.10;;
34924;SDS011;21130;51.728;8.748;2023-09-18T06:14:41;6.03;;;4.85;;
34924;SDS011;21130;51.728;8.748;2023-09-18T06:17:09;6.07;;;4.68;;
34924;SDS011;21130;51.728;8.748;2023-09-18T06:19:35;6.57;;;4.30;;
34924;SDS011;21130;51.728;8.748;2023-09-18T06:22:02;6.47;;;4.43;;
34924;SDS011;21130;51.728;8.748;2023-09-18T06:24:29;7.70;;;4.22;;
34924;SDS011;21130;51.728;8.748;2023-09-18T06:26:56;6.30;;;4.47;;
34924;SDS011;21130;51.728;8.748;2023-09-18T06:29:22;4.65;;;3.67;;
34924;SDS011;21130;51.728;8.748;2023-09-18T06:31:49;5.85;;;4.18;;
34924;SDS011;21130;51.728;8.748;2023-09-18T06:34:19;5.75;;;4.15;;
34924;SDS011;21130;51.728;8.748;2023-09-18T06:36:46;8.30;;;4.18;;
34924;SDS011;21130;51.728;8.748;2023-09-18T06:39:12;12.90;;;4.55;;
34924;SDS011;21130;51.728;8.748;2023-09-18T06:41:40;7.35;;;4.20;;
34924;SDS011;21130;51.728;8.748;2023-09-18T06:44:09;6.53;;;3.80;;
34924;SDS011;21130;51.728;8.748;2023-09-18T06:46:35;6.28;;;4.22;;
34924;SDS011;21130;51.728;8.748;2023-09-18T06:49:02;6.47;;;4.28;;
34924;SDS011;21130;51.728;8.748;2023-09-18T06:51:30;10.75;;;4.38;;
34924;SDS011;21130;51.728;8.748;2023-09-18T06:53:56;7.60;;;4.40;;
34924;SDS011;21130;51.728;8.748;2023-09-18T06:56:23;7.72;;;4.10;;
34924;SDS011;21130;51.728;8.748;2023-09-18T06:58:49;8.20;;;4.47;;
34924;SDS011;21130;51.728;8.748;2023-09-18T07:01:16;6.00;;;4.30;;
34924;SDS011;21130;51.728;8.748;2023-09-18T07:03:43;8.52;;;4.00;;
34924;SDS011;21130;51.728;8.748;2023-09-18T07:06:12;4.47;;;3.92;;
34924;SDS011;21130;51.728;8.748;2023-09-18T07:08:59;5.75;;;3.70;;
34924;SDS011;21130;51.728;8.748;2023-09-18T07:11:26;7.20;;;4.75;;
34924;SDS011;21130;51.728;8.748;2023-09-18T07:13:52;7.40;;;4.70;;
34924;SDS011;21130;51.728;8.748;2023-09-18T07:16:19;9.35;;;4.25;;
34924;SDS011;21130;51.728;8.748;2023-09-18T07:18:45;7.57;;;4.00;;
34924;SDS011;21130;51.728;8.748;2023-09-18T07:21:14;7.13;;;3.65;;
34924;SDS011;21130;51.728;8.748;2023-09-18T07:23:41;6.95;;;4.10;;
34924;SDS011;21130;51.728;8.748;2023-09-18T07:26:10;8.07;;;4.25;;
34924;SDS011;21130;51.728;8.748;2023-09-18T07:28:45;8.77;;;4.35;;
34924;SDS011;21130;51.728;8.748;2023-09-18T07:31:13;7.38;;;3.58;;
34924;SDS011;21130;51.728;8.748;2023-09-18T07:34:00;8.90;;;4.20;;
34924;SDS011;21130;51.728;8.748;2023-09-18T07:37:05;7.43;;;3.33;;
34924;SDS011;21130;51.728;8.748;2023-09-18T07:39:50;5.95;;;3.35;;
34924;SDS011;21130;51.728;8.748;2023-09-18T07:42:18;7.20;;;3.90;;
34924;SDS011;21130;51.728;8.748;2023-09-18T07:44:46;7.60;;;3.30;;
34924;SDS011;21130;51.728;8.748;2023-09-18T07:47:12;5.15;;;3.75;;
34924;SDS011;21130;51.728;8.748;2023-09-18T07:49:38;8.25;;;3.28;;
34924;SDS011;21130;51.728;8.748;2023-09-18T07:52:05;5.60;;;2.75;;
34924;SDS011;21130;51.728;8.748;2023-09-18T07:54:31;7.97;;;2.28;;
34924;SDS011;21130;51.728;8.748;2023-09-18T07:56:58;5.28;;;2.30;;
34924;SDS011;21130;51.728;8.748;2023-09-18T07:59:27;5.93;;;2.00;;
34924;SDS011;21130;51.728;8.748;2023-09-18T08:01:54;7.50;;;2.63;;
34924;SDS011;21130;51.728;8.748;2023-09-18T08:04:20;5.25;;;2.20;;
34924;SDS011;21130;51.728;8.748;2023-09-18T08:06:47;6.78;;;2.17;;
34924;SDS011;21130;51.728;8.748;2023-09-18T08:09:13;4.07;;;1.92;;
34924;SDS011;21130;51.728;8.748;2023-09-18T08:11:41;7.63;;;2.65;;
34924;SDS011;21130;51.728;8.748;2023-09-18T08:14:07;5.45;;;2.20;;
34924;SDS011;21130;51.728;8.748;2023-09-18T08:16:37;6.70;;;2.00;;
34924;SDS011;21130;51.728;8.748;2023-09-18T08:19:04;6.65;;;1.90;;
34924;SDS011;21130;51.728;8.748;2023-09-18T08:21:31;8.75;;;2.10;;
34924;SDS011;21130;51.728;8.748;2023-09-18T08:23:58;5.53;;;2.00;;
34924;SDS011;21130;51.728;8.748;2023-09-18T08:26:24;5.28;;;2.45;;
34924;SDS011;21130;51.728;8.748;2023-09-18T08:28:52;5.50;;;2.10;;
34924;SDS011;21130;51.728;8.748;2023-09-18T08:31:19;6.10;;;2.10;;
34924;SDS011;21130;51.728;8.748;2023-09-18T08:33:47;7.15;;;2.10;;
34924;SDS011;21130;51.728;8.748;2023-09-18T08:36:13;5.38;;;2.00;;
34924;SDS011;21130;51.728;8.748;2023-09-18T08:38:40;4.90;;;1.80;;
34924;SDS011;21130;51.728;8.748;2023-09-18T08:41:09;7.20;;;2.20;;
34924;SDS011;21130;51.728;8.748;2023-09-18T08:43:36;5.35;;;2.05;;
34924;SDS011;21130;51.728;8.748;2023-09-18T08:46:07;3.72;;;1.98;;
34924;SDS011;21130;51.728;8.748;2023-09-18T08:48:33;5.65;;;1.90;;
34924;SDS011;21130;51.728;8.748;2023-09-18T08:51:03;6.18;;;1.90;;
34924;SDS011;21130;51.728;8.748;2023-09-18T08:53:30;6.70;;;4.13;;
34924;SDS011;21130;51.728;8.748;2023-09-18T08:55:59;5.10;;;2.58;;
34924;SDS011;21130;51.728;8.748;2023-09-18T08:58:27;4.88;;;1.95;;
34924;SDS011;21130;51.728;8.748;2023-09-18T09:00:57;8.65;;;2.50;;
34924;SDS011;21130;51.728;8.748;2023-09-18T09:03:26;5.68;;;2.08;;
34924;SDS011;21130;51.728;8.748;2023-09-18T09:05:52;5.05;;;1.70;;
34924;SDS011;21130;51.728;8.748;2023-09-18T09:08:20;4.82;;;2.00;;
34924;SDS011;21130;51.728;8.748;2023-09-18T09:10:47;7.53;;;2.30;;
34924;SDS011;21130;51.728;8.748;2023-09-18T09:13:14;6.57;;;1.75;;
34924;SDS011;21130;51.728;8.748;2023-09-18T09:15:43;5.60;;;2.08;;
34924;SDS011;21130;51.728;8.748;2023-09-18T09:18:12;6.30;;;1.90;;
34924;SDS011;21130;51.728;8.748;2023-09-18T09:20:39;4.90;;;1.90;;
34924;SDS011;21130;51.728;8.748;2023-09-18T09:23:08;4.57;;;1.75;;
34924;SDS011;21130;51.728;8.748;2023-09-18T09:25:37;6.47;;;2.15;;
34924;SDS011;21130;51.728;8.748;2023-09-18T09:28:04;3.58;;;1.70;;
34924;SDS011;21130;51.728;8.748;2023-09-18T09:30:33;4.57;;;1.63;;
34924;SDS011;21130;51.728;8.748;2023-09-18T09:33:02;4.68;;;1.67;;
34924;SDS011;21130;51.728;8.748;2023-09-18T09:35:30;5.82;;;1.35;;
34924;SDS011;21130;51.728;8.748;2023-09-18T09:37:59;5.13;;;1.67;;
34924;SDS011;21130;51.728;8.748;2023-09-18T09:40:27;8.40;;;1.88;;
34924;SDS011;21130;51.728;8.748;2023-09-18T09:42:57;5.40;;;1.80;;
34924;SDS011;21130;51.728;8.748;2023-09-18T09:45:26;5.72;;;1.55;;
34924;SDS011;21130;51.728;8.748;2023-09-18T09:48:00;5.55;;;1.40;;
34924;SDS011;21130;51.728;8.748;2023-09-18T09:50:27;6.28;;;1.63;;
34924;SDS011;21130;51.728;8.748;2023-09-18T09:52:54;4.18;;;1.30;;
34924;SDS011;21130;51.728;8.748;2023-09-18T09:55:22;4.07;;;1.38;;
34924;SDS011;21130;51.728;8.748;2023-09-18T09:57:51;6.13;;;1.50;;
34924;SDS011;21130;51.728;8.748;2023-09-18T10:00:23;7.50;;;1.42;;
34924;SDS011;21130;51.728;8.748;2023-09-18T10:02:58;3.25;;;1.65;;
34924;SDS011;21130;51.728;8.748;2023-09-18T10:05:27;8.57;;;2.28;;
34924;SDS011;21130;51.728;8.748;2023-09-18T10:08:00;3.53;;;1.48;;
34924;SDS011;21130;51.728;8.748;2023-09-18T10:10:29;3.13;;;1.50;;
34924;SDS011;21130;51.728;8.748;2023-09-18T10:13:00;5.75;;;1.70;;
34924;SDS011;21130;51.728;8.748;2023-09-18T10:15:30;6.35;;;1.70;;
34924;SDS011;21130;51.728;8.748;2023-09-18T10:18:03;4.40;;;1.65;;
34924;SDS011;21130;51.728;8.748;2023-09-18T10:20:35;5.05;;;1.98;;
34924;SDS011;21130;51.728;8.748;2023-09-18T10:23:09;3.88;;;2.00;;
34924;SDS011;21130;51.728;8.748;2023-09-18T10:25:46;4.13;;;1.33;;
34924;SDS011;21130;51.728;8.748;2023-09-18T10:28:16;3.55;;;2.10;;
34924;SDS011;21130;51.728;8.748;2023-09-18T10:30:44;3.03;;;1.30;;
34924;SDS011;21130;51.728;8.748;2023-09-18T10:33:11;5.65;;;1.95;;
34924;SDS011;21130;51.728;8.748;2023-09-18T10:35:38;3.20;;;1.35;;
34924;SDS011;21130;51.728;8.748;2023-09-18T10:38:07;4.57;;;1.60;;
34924;SDS011;21130;51.728;8.748;2023-09-18T10:40:36;2.17;;;1.23;;
34924;SDS011;21130;51.728;8.748;2023-09-18T10:43:03;4.25;;;1.23;;
34924;SDS011;21130;51.728;8.748;2023-09-18T10:45:34;4.90;;;1.55;;
34924;SDS011;21130;51.728;8.748;2023-09-18T10:48:05;5.60;;;1.42;;
34924;SDS011;21130;51.728;8.748;2023-09-18T10:50:34;5.55;;;1.88;;
34924;SDS011;21130;51.728;8.748;2023-09-18T10:53:02;5.53;;;1.98;;
34924;SDS011;21130;51.728;8.748;2023-09-18T10:55:28;5.05;;;1.55;;
34924;SDS011;21130;51.728;8.748;2023-09-18T10:57:55;3.65;;;1.30;;
34924;SDS011;21130;51.728;8.748;2023-09-18T11:00:24;3.35;;;1.20;;
34924;SDS011;21130;51.728;8.748;2023-09-18T11:02:53;3.90;;;1.60;;
34924;SDS011;21130;51.728;8.748;2023-09-18T11:05:36;5.43;;;1.60;;
34924;SDS011;21130;51.728;8.748;2023-09-18T11:10:55;4.55;;;1.58;;
34924;SDS011;21130;51.728;8.748;2023-09-18T11:13:34;4.88;;;1.40;;
34924;SDS011;21130;51.728;8.748;2023-09-18T11:16:02;6.05;;;1.70;;
34924;SDS011;21130;51.728;8.748;2023-09-18T11:18:40;5.10;;;1.50;;
34924;SDS011;21130;51.728;8.748;2023-09-18T11:21:08;3.17;;;1.50;;
34924;SDS011;21130;51.728;8.748;2023-09-18T11:23:36;3.78;;;1.40;;
34924;SDS011;21130;51.728;8.748;2023-09-18T11:26:06;5.35;;;1.70;;
34924;SDS011;21130;51.728;8.748;2023-09-18T11:28:33;3.45;;;1.70;;
34924;SDS011;21130;51.728;8.748;2023-09-18T11:31:00;4.25;;;1.38;;
34924;SDS011;21130;51.728;8.748;2023-09-18T11:33:31;4.68;;;1.27;;
34924;SDS011;21130;51.728;8.748;2023-09-18T11:36:04;3.63;;;1.20;;
34924;SDS011;21130;51.728;8.748;2023-09-18T11:38:34;1.75;;;1.20;;
34924;SDS011;21130;51.728;8.748;2023-09-18T11:43:46;2.65;;;1.13;;
34924;SDS011;21130;51.728;8.748;2023-09-18T11:46:12;3.80;;;1.38;;
34924;SDS011;21130;51.728;8.748;2023-09-18T11:48:44;6.82;;;1.23;;
34924;SDS011;21130;51.728;8.748;2023-09-18T11:51:15;5.15;;;1.20;;
34924;SDS011;21130;51.728;8.748;2023-09-18T11:53:48;2.85;;;1.35;;
34924;SDS011;21130;51.728;8.748;2023-09-18T11:56:18;4.47;;;1.20;;
34924;SDS011;21130;51.728;8.748;2023-09-18T11:58:46;5.55;;;1.15;;
34924;SDS011;21130;51.728;8.748;2023-09-18T12:01:14;2.75;;;1.15;;
34924;SDS011;21130;51.728;8.748;2023-09-18T12:03:41;3.50;;;1.40;;
34924;SDS011;21130;51.728;8.748;2023-09-18T12:06:08;2.50;;;1.25;;
34924;SDS011;21130;51.728;8.748;2023-09-18T12:08:38;5.72;;;1.40;;
34924;SDS011;21130;51.728;8.748;2023-09-18T12:11:06;3.00;;;1.27;;
34924;SDS011;21130;51.728;8.748;2023-09-18T12:13:33;2.72;;;1.00;;
34924;SDS011;21130;51.728;8.748;2023-09-18T12:16:01;4.47;;;1.55;;
34924;SDS011;21130;51.728;8.748;2023-09-18T12:18:31;4.63;;;1.60;;
34924;SDS011;21130;51.728;8.748;2023-09-18T12:21:01;3.88;;;1.38;;
34924;SDS011;21130;51.728;8.748;2023-09-18T12:23:36;4.97;;;1.60;;
34924;SDS011;21130;51.728;8.748;2023-09-18T12:26:03;3.72;;;1.30;;
34924;SDS011;21130;51.728;8.748;2023-09-18T12:28:34;4.55;;;1.20;;
34924;SDS011;21130;51.728;8.748;2023-09-18T12:31:01;2.92;;;1.40;;
34924;SDS011;21130;51.728;8.748;2023-09-18T12:33:33;4.28;;;1.20;;
34924;SDS011;21130;51.728;8.748;2023-09-18T12:36:00;4.93;;;1.30;;
34924;SDS011;21130;51.728;8.748;2023-09-18T12:38:28;2.20;;;1.42;;
34924;SDS011;21130;51.728;8.748;2023-09-18T12:41:19;2.65;;;1.17;;
34924;SDS011;21130;51.728;8.748;2023-09-18T12:43:46;2.92;;;1.30;;
34924;SDS011;21130;51.728;8.748;2023-09-18T12:46:13;3.33;;;1.30;;
34924;SDS011;21130;51.728;8.748;2023-09-18T12:48:40;4.15;;;1.42;;
34924;SDS011;21130;51.728;8.748;2023-09-18T12:51:11;2.90;;;1.05;;
34924;SDS011;21130;51.728;8.748;2023-09-18T12:53:38;3.78;;;1.25;;
34924;SDS011;21130;51.728;8.748;2023-09-18T12:56:05;3.17;;;1.20;;
34924;SDS011;21130;51.728;8.748;2023-09-18T12:58:33;3.08;;;1.13;;
34924;SDS011;21130;51.728;8.748;2023-09-18T13:01:03;2.22;;;1.30;;
34924;SDS011;21130;51.728;8.748;2023-09-18T13:03:34;3.40;;;1.25;;
34924;SDS011;21130;51.728;8.748;2023-09-18T13:06:08;3.65;;;1.48;;
34924;SDS011;21130;51.728;8.748;2023-09-18T13:08:35;5.07;;;1.58;;
34924;SDS011;21130;51.728;8.748;2023-09-18T13:11:02;4.72;;;1.38;;
34924;SDS011;21130;51.728;8.748;2023-09-18T13:13:29;2.08;;;1.20;;
34924;SDS011;21130;51.728;8.748;2023-09-18T13:15:57;3.72;;;1.10;;
34924;SDS011;21130;51.728;8.748;2023-09-18T13:18:26;2.55;;;1.27;;
34924;SDS011;21130;51.728;8.748;2023-09-18T13:20:53;2.17;;;1.20;;
34924;SDS011;21130;51.728;8.748;2023-09-18T13:23:19;3.03;;;1.02;;
34924;SDS011;21130;51.728;8.748;2023-09-18T13:25:46;4.13;;;1.40;;
34924;SDS011;21130;51.728;8.748;2023-09-18T13:28:13;2.97;;;1.40;;
34924;SDS011;21130;51.728;8.748;2023-09-18T13:30:40;3.65;;;1.50;;
34924;SDS011;21130;51.728;8.748;2023-09-18T13:33:08;3.72;;;1.10;;
34924;SDS011;21130;51.728;8.748;2023-09-18T13:35:38;2.60;;;1.10;;
34924;SDS011;21130;51.728;8.748;2023-09-18T13:38:06;4.80;;;1.20;;
34924;SDS011;21130;51.728;8.748;2023-09-18T13:40:36;4.03;;;1.40;;
34924;SDS011;21130;51.728;8.748;2023-09-18T13:43:03;2.15;;;1.13;;
34924;SDS011;21130;51.728;8.748;2023-09-18T13:45:31;2.25;;;1.00;;
34924;SDS011;21130;51.728;8.748;2023-09-18T13:47:58;2.63;;;1.08;;
34924;SDS011;21130;51.728;8.748;2023-09-18T13:50:25;4.75;;;1.23;;
34924;SDS011;21130;51.728;8.748;2023-09-18T13:52:53;5.22;;;1.10;;
34924;SDS011;21130;51.728;8.748;2023-09-18T13:55:19;3.25;;;0.90;;
34924;SDS011;21130;51.728;8.748;2023-09-18T13:57:47;2.50;;;1.10;;
34924;SDS011;21130;51.728;8.748;2023-09-18T14:00:13;4.82;;;0.93;;
34924;SDS011;21130;51.728;8.748;2023-09-18T14:02:40;3.60;;;0.95;;
34924;SDS011;21130;51.728;8.748;2023-09-18T14:05:08;5.72;;;1.25;;
34924;SDS011;21130;51.728;8.748;2023-09-18T14:07:35;4.25;;;1.10;;
34924;SDS011;21130;51.728;8.748;2023-09-18T14:10:06;2.17;;;1.10;;
34924;SDS011;21130;51.728;8.748;2023-09-18T14:12:35;1.48;;;1.05;;
34924;SDS011;21130;51.728;8.748;2023-09-18T14:15:02;4.20;;;1.27;;
34924;SDS011;21130;51.728;8.748;2023-09-18T14:17:30;4.40;;;1.13;;
34924;SDS011;21130;51.728;8.748;2023-09-18T14:19:56;1.73;;;1.00;;
34924;SDS011;21130;51.728;8.748;2023-09-18T14:22:24;2.90;;;1.08;;
34924;SDS011;21130;51.728;8.748;2023-09-18T14:24:51;2.75;;;1.00;;
34924;SDS011;21130;51.728;8.748;2023-09-18T14:27:19;2.58;;;1.02;;
34924;SDS011;21130;51.728;8.748;2023-09-18T14:29:45;3.95;;;1.15;;
34924;SDS011;21130;51.728;8.748;2023-09-18T14:32:12;3.45;;;1.17;;
34924;SDS011;21130;51.728;8.748;2023-09-18T14:34:38;1.10;;;1.00;;
34924;SDS011;21130;51.728;8.748;2023-09-18T14:37:05;1.85;;;1.05;;
34924;SDS011;21130;51.728;8.748;2023-09-18T14:39:31;2.15;;;1.25;;
34924;SDS011;21130;51.728;8.748;2023-09-18T14:41:58;2.70;;;0.90;;
34924;SDS011;21130;51.728;8.748;2023-09-18T14:44:27;1.88;;;1.13;;
34924;SDS011;21130;51.728;8.748;2023-09-18T14:46:54;2.72;;;1.15;;
34924;SDS011;21130;51.728;8.748;2023-09-18T14:49:20;2.50;;;1.05;;
34924;SDS011;21130;51.728;8.748;2023-09-18T14:51:47;2.38;;;1.17;;
34924;SDS011;21130;51.728;8.748;2023-09-18T14:54:14;2.25;;;1.30;;
34924;SDS011;21130;51.728;8.748;2023-09-18T14:56:41;1.50;;;1.00;;
34924;SDS011;21130;51.728;8.748;2023-09-18T14:59:10;4.80;;;1.55;;
34924;SDS011;21130;51.728;8.748;2023-09-18T15:01:38;1.48;;;1.20;;